createdAt,value
2023-02-19T00:01:26.170Z,4.65
2023-02-19T00:03:54.615Z,5.05
2023-02-19T00:06:22.314Z,6.40
2023-02-19T00:08:49.731Z,4.03
2023-02-19T00:11:19.149Z,3.88
2023-02-19T00:13:47.500Z,3.63
2023-02-19T00:16:16.102Z,4.95
2023-02-19T00:18:43.664Z,5.22
2023-02-19T00:21:11.471Z,4.10
2023-02-19T00:23:39.135Z,6.47
2023-02-19T00:26:17.565Z,3.33
2023-02-19T00:28:47.251Z,3.83
2023-02-19T00:31:17.145Z,4.28
2023-02-19T00:33:44.637Z,4.13
2023-02-19T00:36:12.036Z,4.47
2023-02-19T00:38:39.976Z,3.88
2023-02-19T00:41:19.004Z,3.40
2023-02-19T00:43:51.507Z,3.55
2023-02-19T00:46:20.147Z,5.35
2023-02-19T00:48:47.782Z,3.97
2023-02-19T00:51:15.268Z,4.10
2023-02-19T00:53:42.675Z,4.88
2023-02-19T00:56:10.075Z,3.63
2023-02-19T00:58:37.469Z,3.53
2023-02-19T01:01:06.494Z,3.22
2023-02-19T01:03:34.076Z,3.83
2023-02-19T01:06:01.484Z,3.25
2023-02-19T01:08:30.823Z,4.75
2023-02-19T01:10:58.290Z,3.50
2023-02-19T01:13:25.715Z,3.03
2023-02-19T01:15:53.150Z,3.10
2023-02-19T01:18:21.866Z,3.72
2023-02-19T01:20:49.377Z,4.57
2023-02-19T01:23:16.752Z,3.15
2023-02-19T01:25:44.141Z,4.75
2023-02-19T01:28:11.892Z,3.90
2023-02-19T01:30:39.497Z,3.20
2023-02-19T01:33:07.009Z,3.45
2023-02-19T01:35:35.792Z,3.47
2023-02-19T01:38:03.189Z,2.95
2023-02-19T01:40:30.608Z,2.92
2023-02-19T01:42:57.993Z,2.42
2023-02-19T01:45:27.771Z,2.47
2023-02-19T01:48:07.733Z,2.53
2023-02-19T01:50:39.536Z,2.30
2023-02-19T01:53:07.719Z,2.15
2023-02-19T01:55:35.304Z,3.13
2023-02-19T01:58:02.752Z,2.13
2023-02-19T02:00:30.175Z,2.58
2023-02-19T02:02:57.590Z,2.33
2023-02-19T02:05:31.363Z,2.10
2023-02-19T02:08:18.584Z,2.60
2023-02-19T02:10:45.966Z,2.22
2023-02-19T02:13:13.340Z,2.33
2023-02-19T02:15:44.752Z,1.80
2023-02-19T02:18:15.407Z,2.90
2023-02-19T02:20:54.175Z,1.90
2023-02-19T02:23:26.398Z,1.80
2023-02-19T02:25:59.864Z,2.45
2023-02-19T02:28:47.325Z,2.13
2023-02-19T02:31:16.427Z,1.58
2023-02-19T02:33:45.545Z,2.05
2023-02-19T02:36:13.870Z,2.03
2023-02-19T02:38:42.704Z,1.70
2023-02-19T02:41:10.381Z,2.15
2023-02-19T02:43:37.914Z,2.08
2023-02-19T02:46:05.396Z,1.73
2023-02-19T02:48:36.704Z,1.67
2023-02-19T02:51:07.634Z,2.00
2023-02-19T02:53:54.432Z,2.00
2023-02-19T02:56:21.869Z,1.67
2023-02-19T02:58:49.312Z,1.98
2023-02-19T03:01:35.200Z,1.65
2023-02-19T03:04:05.551Z,2.00
2023-02-19T03:06:34.602Z,1.63
2023-02-19T03:09:06.034Z,2.05
2023-02-19T03:11:51.085Z,2.10
2023-02-19T03:14:38.524Z,2.10
2023-02-19T03:17:26.027Z,2.22
2023-02-19T03:19:56.910Z,2.53
2023-02-19T03:22:25.876Z,1.83
2023-02-19T03:25:12.816Z,2.17
2023-02-19T03:27:40.481Z,2.20
2023-02-19T03:30:10.694Z,2.58
2023-02-19T03:32:39.379Z,2.28
2023-02-19T03:35:10.612Z,2.33
2023-02-19T03:37:39.450Z,2.40
2023-02-19T03:40:07.628Z,2.30
2023-02-19T03:42:37.870Z,2.97
2023-02-19T03:45:15.863Z,2.60
2023-02-19T03:47:46.020Z,2.25
2023-02-19T03:52:45.939Z,2.92
2023-02-19T03:57:46.258Z,3.10
2023-02-19T04:00:15.184Z,3.33
2023-02-19T04:02:43.924Z,3.30
2023-02-19T04:05:14.220Z,3.75
2023-02-19T04:07:45.543Z,3.42
2023-02-19T04:10:12.950Z,3.05
2023-02-19T04:12:41.176Z,3.40
2023-02-19T04:15:10.360Z,3.83
2023-02-19T04:17:39.573Z,4.43
2023-02-19T04:20:08.960Z,3.22
2023-02-19T04:22:36.893Z,3.50
2023-02-19T04:25:06.209Z,3.67
2023-02-19T04:27:34.762Z,5.97
2023-02-19T04:30:02.197Z,4.68
2023-02-19T04:32:29.614Z,4.13
2023-02-19T04:34:57.050Z,4.53
2023-02-19T04:37:24.401Z,4.88
2023-02-19T04:39:51.783Z,4.57
2023-02-19T04:42:20.515Z,6.38
2023-02-19T04:44:47.967Z,4.47
2023-02-19T04:47:17.639Z,4.82
2023-02-19T04:49:45.014Z,4.68
2023-02-19T04:52:12.405Z,4.95
2023-02-19T04:54:39.783Z,5.88
2023-02-19T04:57:07.159Z,5.00
2023-02-19T04:59:35.858Z,6.13
2023-02-19T05:02:03.261Z,5.53
2023-02-19T05:04:30.683Z,5.00
2023-02-19T05:06:58.178Z,4.78
2023-02-19T05:09:25.534Z,6.50
2023-02-19T05:11:52.930Z,5.82
2023-02-19T05:14:20.327Z,5.63
2023-02-19T05:16:49.094Z,5.65
2023-02-19T05:19:16.493Z,5.82
2023-02-19T05:21:43.887Z,6.05
2023-02-19T05:24:11.260Z,5.68
2023-02-19T05:26:38.663Z,5.57
2023-02-19T05:29:06.036Z,6.10
2023-02-19T05:31:34.470Z,5.45
2023-02-19T05:34:03.357Z,5.57
2023-02-19T05:36:30.902Z,6.63
2023-02-19T05:38:58.334Z,7.70
2023-02-19T05:41:26.946Z,6.43
2023-02-19T05:43:54.334Z,6.03
2023-02-19T05:46:22.853Z,7.82
2023-02-19T05:48:50.420Z,6.57
2023-02-19T05:51:20.103Z,6.30
2023-02-19T05:53:47.517Z,8.73
2023-02-19T05:56:24.786Z,6.13
2023-02-19T05:58:52.156Z,6.45
2023-02-19T06:01:19.975Z,5.25
2023-02-19T06:03:47.392Z,5.25
2023-02-19T06:06:14.924Z,5.80
2023-02-19T06:08:43.649Z,6.10
2023-02-19T06:11:11.292Z,5.78
2023-02-19T06:13:38.948Z,6.13
2023-02-19T06:16:07.041Z,5.47
2023-02-19T06:18:34.480Z,6.03
2023-02-19T06:21:02.034Z,5.68
2023-02-19T06:23:29.439Z,4.40
2023-02-19T06:26:07.595Z,5.78
2023-02-19T06:28:34.979Z,5.28
2023-02-19T06:31:02.396Z,5.28
2023-02-19T06:33:29.952Z,4.40
2023-02-19T06:35:58.952Z,3.42
2023-02-19T06:38:26.337Z,3.67
2023-02-19T06:40:53.834Z,3.75
2023-02-19T06:43:22.544Z,3.67
2023-02-19T06:45:49.988Z,4.97
2023-02-19T06:48:17.367Z,3.80
2023-02-19T06:50:44.763Z,3.95
2023-02-19T06:53:12.274Z,5.22
2023-02-19T06:55:40.332Z,4.68
2023-02-19T06:58:08.514Z,2.65
2023-02-19T07:00:37.479Z,3.03
2023-02-19T07:03:05.656Z,2.95
2023-02-19T07:05:33.083Z,2.60
2023-02-19T07:08:00.476Z,2.50
2023-02-19T07:10:27.852Z,2.30
2023-02-19T07:12:55.282Z,3.47
2023-02-19T07:15:22.661Z,2.45
2023-02-19T07:17:51.364Z,2.20
2023-02-19T07:20:18.929Z,2.13
2023-02-19T07:22:46.327Z,2.20
2023-02-19T07:25:13.723Z,2.92
2023-02-19T07:27:41.127Z,1.90
2023-02-19T07:30:09.573Z,2.17
2023-02-19T07:32:36.987Z,1.85
2023-02-19T07:35:06.319Z,2.10
2023-02-19T07:37:33.711Z,1.92
2023-02-19T07:42:23.529Z,1.80
2023-02-19T07:44:50.909Z,2.65
2023-02-19T07:47:18.287Z,2.65
2023-02-19T07:49:45.667Z,1.80
2023-02-19T07:52:14.355Z,1.90
2023-02-19T07:54:41.743Z,1.30
2023-02-19T07:57:09.133Z,1.40
2023-02-19T07:59:36.542Z,1.33
2023-02-19T08:02:21.653Z,2.03
2023-02-19T08:04:49.028Z,1.63
2023-02-19T08:07:17.744Z,1.30
2023-02-19T08:09:45.114Z,1.30
2023-02-19T08:12:30.201Z,1.17
2023-02-19T08:14:57.787Z,1.38
2023-02-19T08:17:25.230Z,2.40
2023-02-19T08:19:52.736Z,0.90
2023-02-19T08:22:21.441Z,1.10
2023-02-19T08:24:48.817Z,1.58
2023-02-19T08:27:16.222Z,1.35
2023-02-19T08:29:43.604Z,1.48
2023-02-19T08:32:11.026Z,1.38
2023-02-19T08:34:38.697Z,1.08
2023-02-19T08:37:06.095Z,1.00
2023-02-19T08:39:34.803Z,0.95
2023-02-19T08:42:02.190Z,0.90
2023-02-19T08:44:29.655Z,1.20
2023-02-19T08:46:57.075Z,1.10
2023-02-19T08:49:26.900Z,1.38
2023-02-19T08:51:54.283Z,0.90
2023-02-19T08:54:21.657Z,0.80
2023-02-19T08:56:50.368Z,1.40
2023-02-19T08:59:20.102Z,0.80
2023-02-19T09:01:47.476Z,1.40
2023-02-19T09:04:14.957Z,0.90
2023-02-19T09:06:42.386Z,0.80
2023-02-19T09:09:09.762Z,1.15
2023-02-19T09:11:39.608Z,0.80
2023-02-19T09:14:08.278Z,0.90
2023-02-19T09:16:35.711Z,0.82
2023-02-19T09:19:03.111Z,0.85
2023-02-19T09:21:30.536Z,1.38
2023-02-19T09:23:57.938Z,1.23
2023-02-19T09:26:25.381Z,0.95
2023-02-19T09:28:52.800Z,0.80
2023-02-19T09:31:21.607Z,0.70
2023-02-19T09:33:49.288Z,0.98
2023-02-19T09:36:17.014Z,0.80
2023-02-19T09:38:44.419Z,1.25
2023-02-19T09:41:16.154Z,1.00
2023-02-19T09:43:43.520Z,0.93
2023-02-19T09:46:15.789Z,0.85
2023-02-19T09:48:44.499Z,0.98
2023-02-19T09:51:12.135Z,1.00
2023-02-19T09:53:41.953Z,1.13
2023-02-19T09:56:09.409Z,1.30
2023-02-19T09:58:37.421Z,1.10
2023-02-19T10:01:07.714Z,1.10
2023-02-19T10:03:39.088Z,1.00
2023-02-19T10:06:11.340Z,0.90
2023-02-19T10:08:40.395Z,1.15
2023-02-19T10:11:07.816Z,0.82
2023-02-19T10:13:36.437Z,1.02
2023-02-19T10:16:04.877Z,0.90
2023-02-19T10:18:38.651Z,1.10
2023-02-19T10:21:07.680Z,1.17
2023-02-19T10:23:35.068Z,1.10
2023-02-19T10:26:02.466Z,1.00
2023-02-19T10:28:30.786Z,1.08
2023-02-19T10:30:59.578Z,0.90
2023-02-19T10:33:27.192Z,0.70
2023-02-19T10:35:56.374Z,1.05
2023-02-19T10:38:28.158Z,0.55
2023-02-19T10:41:00.380Z,0.80
2023-02-19T10:43:33.638Z,0.90
2023-02-19T10:46:02.744Z,0.80
2023-02-19T10:48:31.257Z,1.20
2023-02-19T10:51:04.895Z,1.00
2023-02-19T10:53:47.699Z,1.15
2023-02-19T10:56:16.140Z,0.90
2023-02-19T10:58:44.795Z,0.80
2023-02-19T11:01:20.347Z,0.95
2023-02-19T11:03:48.631Z,1.00
2023-02-19T11:06:16.679Z,1.17
2023-02-19T11:09:03.150Z,0.90
2023-02-19T11:11:34.836Z,0.80
2023-02-19T11:14:05.022Z,0.82
2023-02-19T11:19:06.356Z,1.00
2023-02-19T11:21:34.333Z,0.90
2023-02-19T11:24:03.653Z,0.80
2023-02-19T11:26:32.962Z,0.80
2023-02-19T11:29:01.074Z,0.70
2023-02-19T11:31:31.445Z,0.80
2023-02-19T11:33:59.758Z,0.80
2023-02-19T11:36:30.389Z,0.80
2023-02-19T11:38:58.956Z,1.08
2023-02-19T11:41:37.435Z,1.00
2023-02-19T11:44:12.727Z,0.90
2023-02-19T11:46:42.659Z,0.80
2023-02-19T11:49:17.539Z,0.90
2023-02-19T11:51:53.631Z,0.82
2023-02-19T11:54:36.839Z,0.80
2023-02-19T11:57:15.705Z,1.30
2023-02-19T11:59:45.839Z,0.93
2023-02-19T12:05:18.286Z,0.80
2023-02-19T12:07:55.971Z,0.90
2023-02-19T12:10:25.128Z,0.75
2023-02-19T12:12:59.820Z,0.82
2023-02-19T12:15:36.020Z,0.80
2023-02-19T12:18:26.248Z,0.70
2023-02-19T12:23:48.802Z,0.73
2023-02-19T12:26:20.928Z,0.80
2023-02-19T12:29:15.589Z,1.08
2023-02-19T12:32:05.218Z,0.95
2023-02-19T12:34:50.581Z,0.60
2023-02-19T12:37:25.020Z,0.80
2023-02-19T12:39:57.056Z,0.80
2023-02-19T12:42:41.391Z,1.23
2023-02-19T12:45:16.139Z,1.10
2023-02-19T12:47:43.546Z,0.80
2023-02-19T12:50:19.325Z,0.88
2023-02-19T12:52:48.315Z,1.00
2023-02-19T12:55:20.350Z,0.82
2023-02-19T12:57:47.768Z,0.98
2023-02-19T13:00:26.428Z,0.90
2023-02-19T13:02:56.788Z,0.77
2023-02-19T13:05:26.592Z,0.70
2023-02-19T13:07:55.296Z,1.20
2023-02-19T13:10:26.060Z,1.00
2023-02-19T13:12:53.459Z,0.80
2023-02-19T13:15:29.403Z,0.90
2023-02-19T13:17:57.311Z,1.38
2023-02-19T13:20:27.344Z,0.98
2023-02-19T13:23:16.557Z,1.20
2023-02-19T13:25:50.949Z,0.80
2023-02-19T13:28:24.004Z,0.80
2023-02-19T13:31:02.942Z,0.80
2023-02-19T13:33:44.828Z,1.00
2023-02-19T13:36:13.672Z,1.17
2023-02-19T13:38:42.012Z,0.90
2023-02-19T13:41:18.629Z,1.05
2023-02-19T13:43:46.968Z,0.80
2023-02-19T13:46:16.540Z,0.80
2023-02-19T13:48:44.384Z,1.63
2023-02-19T13:51:40.721Z,0.90
2023-02-19T13:54:15.328Z,0.98
2023-02-19T13:56:42.790Z,1.55
2023-02-19T13:59:28.884Z,1.10
2023-02-19T14:02:35.053Z,1.70
2023-02-19T14:05:07.078Z,1.00
2023-02-19T14:07:37.214Z,1.00
2023-02-19T14:12:32.927Z,1.10
2023-02-19T14:15:38.686Z,1.20
2023-02-19T14:18:41.607Z,2.40
2023-02-19T14:21:16.601Z,0.88
2023-02-19T14:23:44.011Z,1.00
2023-02-19T14:26:11.490Z,1.25
2023-02-19T14:28:42.276Z,0.95
2023-02-19T14:31:18.574Z,0.90
2023-02-19T14:33:47.677Z,0.73
2023-02-19T14:36:20.991Z,1.23
2023-02-19T14:38:49.643Z,0.80
2023-02-19T14:41:18.224Z,1.00
2023-02-19T14:43:46.015Z,0.85
2023-02-19T14:46:16.517Z,1.02
2023-02-19T14:48:45.689Z,1.20
2023-02-19T14:51:15.039Z,1.67
2023-02-19T14:53:44.816Z,0.77
2023-02-19T14:56:19.961Z,1.05
2023-02-19T14:58:47.557Z,1.33
2023-02-19T15:01:27.288Z,1.27
2023-02-19T15:03:54.937Z,1.25
2023-02-19T15:06:23.606Z,1.13
2023-02-19T15:08:53.245Z,0.85
2023-02-19T15:11:22.370Z,1.20
2023-02-19T15:13:50.501Z,1.00
2023-02-19T15:16:18.914Z,1.13
2023-02-19T15:18:47.156Z,1.52
2023-02-19T15:21:22.194Z,1.38
2023-02-19T15:23:49.759Z,1.33
2023-02-19T15:26:21.272Z,1.05
2023-02-19T15:28:51.951Z,1.30
2023-02-19T15:31:19.527Z,1.23
2023-02-19T15:33:51.259Z,1.00
2023-02-19T15:36:24.346Z,1.33
2023-02-19T15:38:55.508Z,1.35
2023-02-19T15:41:24.710Z,1.20
2023-02-19T15:43:54.012Z,1.83
2023-02-19T15:46:22.211Z,2.13
2023-02-19T15:48:51.422Z,1.60
2023-02-19T15:51:21.231Z,1.00
2023-02-19T15:53:50.592Z,1.83
2023-02-19T15:56:19.484Z,1.08
2023-02-19T15:58:49.396Z,1.33
2023-02-19T16:01:19.446Z,1.52
2023-02-19T16:03:46.839Z,1.17
2023-02-19T16:06:15.740Z,1.40
2023-02-19T16:08:43.513Z,1.20
2023-02-19T16:11:29.085Z,1.52
2023-02-19T16:14:19.378Z,1.10
2023-02-19T16:16:47.438Z,1.98
2023-02-19T16:19:19.919Z,1.33
2023-02-19T16:21:47.304Z,1.50
2023-02-19T16:24:25.688Z,1.40
2023-02-19T16:26:53.051Z,1.75
2023-02-19T16:29:22.693Z,1.27
2023-02-19T16:31:50.965Z,1.40
2023-02-19T16:34:19.165Z,1.27
2023-02-19T16:36:48.406Z,1.70
2023-02-19T16:39:23.429Z,1.30
2023-02-19T16:42:17.859Z,1.38
2023-02-19T16:44:47.022Z,1.60
2023-02-19T16:47:31.160Z,1.65
2023-02-19T16:49:59.971Z,1.50
2023-02-19T16:52:27.485Z,1.52
2023-02-19T16:54:54.925Z,1.23
2023-02-19T16:57:22.413Z,1.67
2023-02-19T16:59:51.123Z,1.60
2023-02-19T17:02:21.241Z,1.38
2023-02-19T17:07:16.010Z,1.90
2023-02-19T17:09:43.716Z,1.85
2023-02-19T17:12:14.768Z,2.08
2023-02-19T17:14:42.171Z,1.52
2023-02-19T17:17:10.867Z,1.50
2023-02-19T17:19:39.154Z,1.30
2023-02-19T17:22:07.474Z,1.52
2023-02-19T17:24:34.882Z,1.60
2023-02-19T17:27:02.284Z,1.65
2023-02-19T17:29:33.710Z,1.58
2023-02-19T17:32:01.679Z,1.52
2023-02-19T17:34:30.422Z,1.92
2023-02-19T17:36:57.797Z,2.35
2023-02-19T17:39:25.261Z,1.60
2023-02-19T17:41:52.652Z,1.63
2023-02-19T17:44:20.047Z,1.52
2023-02-19T17:46:47.590Z,1.60
2023-02-19T17:49:15.034Z,1.63
2023-02-19T17:51:43.756Z,1.60
2023-02-19T17:54:11.139Z,2.20
2023-02-19T17:56:43.049Z,3.47
2023-02-19T17:59:10.641Z,2.15
2023-02-19T18:01:38.159Z,1.80
2023-02-19T18:04:06.058Z,2.70
2023-02-19T18:06:33.573Z,2.60
2023-02-19T18:09:02.264Z,2.38
2023-02-19T18:11:29.666Z,2.47
2023-02-19T18:13:57.084Z,2.58
2023-02-19T18:16:24.550Z,2.30
2023-02-19T18:18:51.951Z,3.33
2023-02-19T18:21:19.329Z,2.97
2023-02-19T18:23:47.527Z,4.25
2023-02-19T18:26:20.516Z,2.85
2023-02-19T18:28:47.900Z,2.60
2023-02-19T18:31:15.696Z,2.85
2023-02-19T18:33:43.324Z,3.10
2023-02-19T18:36:11.219Z,3.08
2023-02-19T18:38:38.591Z,2.67
2023-02-19T18:41:06.081Z,2.65
2023-02-19T18:43:34.769Z,3.13
2023-02-19T18:46:03.168Z,3.03
2023-02-19T18:48:30.591Z,3.05
2023-02-19T18:50:57.979Z,2.70
2023-02-19T18:53:25.374Z,2.63
2023-02-19T18:55:52.761Z,2.58
2023-02-19T18:58:20.365Z,2.70
2023-02-19T19:00:49.060Z,2.58
2023-02-19T19:03:16.438Z,2.78
2023-02-19T19:05:43.849Z,2.65
2023-02-19T19:08:11.223Z,3.78
2023-02-19T19:10:38.602Z,2.83
2023-02-19T19:13:06.504Z,2.92
2023-02-19T19:15:33.926Z,3.40
2023-02-19T19:18:02.985Z,2.63
2023-02-19T19:20:30.409Z,2.85
2023-02-19T19:22:57.789Z,2.38
2023-02-19T19:25:25.188Z,3.13
2023-02-19T19:27:55.359Z,2.47
2023-02-19T19:32:50.212Z,2.60
2023-02-19T19:35:19.302Z,2.63
2023-02-19T19:37:46.701Z,3.03
2023-02-19T19:40:14.250Z,2.80
2023-02-19T19:42:43.009Z,2.92
2023-02-19T19:47:39.356Z,2.95
2023-02-19T19:50:07.270Z,2.35
2023-02-19T19:52:35.953Z,2.90
2023-02-19T19:55:03.383Z,3.17
2023-02-19T19:57:30.782Z,3.65
2023-02-19T19:59:58.224Z,2.83
2023-02-19T20:02:25.611Z,3.90
2023-02-19T20:04:53.004Z,3.03
2023-02-19T20:07:20.406Z,3.00
2023-02-19T20:09:49.656Z,4.20
2023-02-19T20:12:17.168Z,2.92
2023-02-19T20:14:45.012Z,5.32
2023-02-19T20:17:12.413Z,3.50
2023-02-19T20:19:39.804Z,3.67
2023-02-19T20:22:07.226Z,2.65
2023-02-19T20:24:34.620Z,3.30
2023-02-19T20:27:03.826Z,3.20
2023-02-19T20:29:33.932Z,3.90
2023-02-19T20:34:30.953Z,3.28
2023-02-19T20:36:58.658Z,2.53
2023-02-19T20:39:29.088Z,3.42
2023-02-19T20:41:57.363Z,4.25
2023-02-19T20:44:26.143Z,3.00
2023-02-19T20:46:53.626Z,3.03
2023-02-19T20:49:22.221Z,3.17
2023-02-19T20:51:51.741Z,3.10
2023-02-19T20:54:19.454Z,4.35
2023-02-19T20:56:46.922Z,3.83
2023-02-19T20:59:14.555Z,3.08
2023-02-19T21:01:43.289Z,3.10
2023-02-19T21:04:10.755Z,3.65
2023-02-19T21:06:38.143Z,3.63
2023-02-19T21:09:05.621Z,3.05
2023-02-19T21:11:33.135Z,3.72
2023-02-19T21:14:00.561Z,4.45
2023-02-19T21:16:28.124Z,3.83
2023-02-19T21:18:56.831Z,3.45
2023-02-19T21:21:25.232Z,3.78
2023-02-19T21:23:52.681Z,3.78
2023-02-19T21:26:20.096Z,3.83
2023-02-19T21:28:47.652Z,3.97
2023-02-19T21:31:15.145Z,5.07
2023-02-19T21:36:12.169Z,3.83
2023-02-19T21:38:39.752Z,4.10
2023-02-19T21:41:07.159Z,4.03
2023-02-19T21:43:34.583Z,3.42
2023-02-19T21:46:02.219Z,4.00
2023-02-19T21:48:29.667Z,4.03
2023-02-19T21:50:57.112Z,3.58
2023-02-19T21:53:25.803Z,4.22
2023-02-19T21:56:10.726Z,3.78
2023-02-19T21:58:38.217Z,3.45
2023-02-19T22:01:05.942Z,4.25
2023-02-19T22:03:33.352Z,3.58
2023-02-19T22:06:02.385Z,3.75
2023-02-19T22:08:31.084Z,3.50
2023-02-19T22:10:58.476Z,3.67
2023-02-19T22:13:25.863Z,3.60
2023-02-19T22:15:53.265Z,3.70
2023-02-19T22:18:20.700Z,3.38
2023-02-19T22:20:48.077Z,3.70
2023-02-19T22:23:15.476Z,4.25
2023-02-19T22:25:44.244Z,4.20
2023-02-19T22:28:11.624Z,4.10
2023-02-19T22:30:39.923Z,3.72
2023-02-19T22:33:07.384Z,3.95
2023-02-19T22:35:34.778Z,3.75
2023-02-19T22:38:02.225Z,4.05
2023-02-19T22:40:29.613Z,3.75
2023-02-19T22:42:58.345Z,4.22
2023-02-19T22:45:26.126Z,3.78
2023-02-19T22:47:54.889Z,4.05
2023-02-19T22:50:22.448Z,3.38
2023-02-19T22:52:49.858Z,3.90
2023-02-19T22:55:17.441Z,4.45
2023-02-19T22:57:44.849Z,3.95
2023-02-19T23:00:18.409Z,3.50
2023-02-19T23:02:46.677Z,3.97
2023-02-19T23:05:14.078Z,3.60
2023-02-19T23:07:43.462Z,3.92
2023-02-19T23:10:11.186Z,3.65
2023-02-19T23:12:38.707Z,3.50
2023-02-19T23:15:06.493Z,3.15
2023-02-19T23:17:35.184Z,3.35
2023-02-19T23:20:02.637Z,3.70
2023-02-19T23:22:30.072Z,3.55
2023-02-19T23:24:57.573Z,3.28
2023-02-19T23:27:26.577Z,3.83
2023-02-19T23:29:53.956Z,4.55
2023-02-19T23:32:23.569Z,3.20
2023-02-19T23:34:52.360Z,4.00
2023-02-19T23:37:19.740Z,4.53
2023-02-19T23:39:47.109Z,3.80
2023-02-19T23:42:15.905Z,3.35
2023-02-19T23:44:43.384Z,3.50
2023-02-19T23:47:10.777Z,3.50
2023-02-19T23:49:38.147Z,3.30
2023-02-19T23:52:06.972Z,4.20
2023-02-19T23:54:34.691Z,4.18
2023-02-19T23:57:02.166Z,3.63
2023-02-19T23:59:29.596Z,4.28
